x

Freeport, Tx - 60 Nm South Of Freeport, Tx (42019) Wave Buoy

6:50am - Sun 19th Feb 2017 All times are CST. -6 hours from GMT.

  • Sig Wave height 3.9ft
  • Swell Direction
  • Peak Period 6s
  • Average Period 5s
  • Wind
    16mph, 18mph gusts
  • Sea Temp 70°f
  • Air Temp 73°f
  • Sea Pressure 1011.3mb
  • Freeport, Tx - 60 Nm South Of Freeport, Tx
  • Freeport, Tx - 60 Nm South Of Freeport, Tx

More Historic Weather Station data

Upgrade to MSW Pro to gain access to the past 30 days of data for over 8000 Wavebouys and Weather Stations around the globe.

Join Pro

Comparision Forecast

View Surf forecast
   
Sun 02/19 6:50am 4ft 6s 5s 16 18 mph 1011.3mb 70f 73f
5:50am 4ft 6s 5s 13 16 mph 1010.7mb 70f 73f
4:50am 4ft 7s 5s 16
mph
1009.7mb 70f 72f
3:50am 4.5ft 6s 5s 18 22 mph 1009.4mb 70f 73f
2:50am 4ft 6s 5s 18 20 mph 1009.8mb 70f 73f
1:50am 4ft 7s 5s 16 18 mph 1010.3mb 70f 73f
12:50am 4ft 7s 5s 16 18 mph 1010.7mb 70f 73f
Sat 02/18 11:50pm 4ft 6s 5s 13 16 mph 1010.9mb 70f 72f
10:50pm 4ft 7s 5s 18 20 mph 1010.5mb 70f 73f
9:50pm 3.5ft 7s 5s 18 20 mph 1009.8mb 70f 72f
8:50pm 3.5ft 7s 5s 16 18 mph 1009.7mb 70f 72f
7:50pm 3.5ft 7s 5s 11 13 mph 1009.5mb 70f 72f
6:50pm 3.5ft 6s 5s 13 16 mph 1009.2mb 70f 72f
5:50pm 3.5ft 7s 5s 11 13 mph 1009.3mb 71f 72f
4:50pm 3.5ft 7s 5s 9 11 mph 1009.1mb 71f 72f
3:50pm 3.5ft 7s 5s 11 13 mph 1008.8mb 71f 72f
2:50pm 3.5ft 7s 5s 13 16 mph 1009mb 71f 72f
1:50pm 4ft 6s 5s 11 13 mph 1009.3mb 71f 72f
12:50pm 3.5ft 6s 5s 11
mph
1010mb 71f 72f
11:50am 4ft 7s 5s 9 11 mph 1010.5mb 71f 72f
10:50am 4ft 6s 5s 9 11 mph 1011.1mb 70f 72f
9:50am 4ft 7s 5s 9 11 mph 1010.8mb 70f 71f
8:50am 4.5ft 7s 5s 11 13 mph 1010.6mb 70f 71f
7:50am 4.5ft 7s 5s 11 13 mph 1010mb 70f 71f
6:50am 4ft 7s 5s 13 18 mph 1009.7mb 70f 71f
5:50am 4ft 6s 5s 13 18 mph 1009.5mb 70f 71f
4:50am 3.5ft 6s 5s 11
mph
1009.1mb 70f 70f
3:50am 3.5ft 6s 5s 11 13 mph 1009.2mb 70f 70f
2:50am 3ft 6s 5s 11 13 mph 1009.2mb 70f 70f
1:50am 3.5ft 6s 5s 11 13 mph 1009.2mb 70f 71f
12:50am 3.5ft 6s 5s 9
mph
1009.4mb 70f 70f
Fri 02/17 11:50pm 4ft 6s 5s 7 9 mph 1010.2mb 70f 70f
10:50pm 3.5ft 6s 5s 7 9 mph 1010mb 70f 71f
9:50pm 4ft 6s 5s 9 11 mph 1010.1mb 70f 71f
8:50pm 4ft 6s 5s 9
mph
1009.9mb 70f 70f
7:50pm 3.5ft 6s 5s 9 11 mph 1009.9mb 70f 70f
6:50pm 4.5ft 6s 5s 9 11 mph 1009.4mb 70f 70f
5:50pm 4.5ft 6s 5s 11 13 mph 1009mb 70f 70f
4:50pm 4ft 6s 5s 11
mph
1009.1mb 70f 69f
3:50pm 3.5ft 5s 4s 9 11 mph 1009.4mb 69f 69f
2:50pm 3ft 5s 4s 16 25 mph 1009.9mb 69f 67f
1:50pm 3.5ft 5s 4s 16 18 mph 1010.9mb 69f 68f
11:50am 2.5ft 4s 4s 18 22 mph 1013.2mb 69f 68f
10:50am 2ft 4s 4s 16 18 mph 1014.5mb 69f 68f
9:50am 2ft 4s 3s 16 18 mph 1014.7mb 69f 69f
8:50am 1.6ft 4s 3s 13 16 mph 1014.9mb 69f 69f
7:50am 1.6ft 3s 3s 11 13 mph 1014.7mb 69f 69f
6:50am 1.6ft 3s 3s 13 16 mph 1014.2mb 69f 69f
5:50am 1.3ft 3s 3s 13 18 mph 1014.4mb 69f 69f
4:50am 1.3ft 3s 3s 11 13 mph 1014.4mb 69f 68f
3:50am 1.3ft 3s 3s 13 16 mph 1014.9mb 70f 68f
2:50am 1ft 3s 3s 11 16 mph 1015.5mb 70f 67f
1:50am 1ft 3s 3s 13 16 mph 1016mb 70f 67f
12:50am 1ft 2s 3s 11 13 mph 1016.9mb 70f 67f
Thu 02/16 11:50pm 1ft 4s 3s 11 13 mph 1017.5mb 70f 66f
10:50pm 1ft 4s 3s 9 11 mph 1018mb 70f 66f
9:50pm 1ft 4s 3s 7 11 mph 1018.2mb 70f 66f
8:50pm 1ft 4s 4s 7 9 mph 1018.1mb 70f 65f
7:50pm 1ft 4s 4s 7 9 mph 1017.6mb 70f 65f
6:50pm 1ft 4s 4s 9 13 mph 1017.4mb 71f 65f
5:50pm 1ft 4s 4s 7 11 mph 1017.6mb 71f 65f
4:50pm 1ft 4s 4s 4 7 mph 1017.6mb 71f 65f
3:50pm 1.3ft 4s 4s 4 9 mph 1017.9mb 72f 65f
2:50pm 1.3ft 4s 4s 4 9 mph 1018.4mb 72f 64f
1:50pm 1.3ft 4s 4s 2 7 mph 1018.8mb 72f 64f
12:50pm 1.3ft 4s 4s  -  2 mph 1019.8mb 71f 65f
11:50am 1.3ft 4s 4s 2 4 mph 1020.8mb 71f 64f
10:50am 1.6ft 4s 4s 4 9 mph 1021.7mb 71f 63f
9:50am 1.6ft 4s 4s 4 9 mph 1021.5mb 71f 63f
8:50am 2ft 4s 4s 7 9 mph 1021.4mb 71f 62f
7:50am 2ft 4s 4s 4 9 mph 1021.1mb 71f 62f
6:50am 2ft 5s 4s 7 9 mph 1020.9mb 71f 62f
5:50am 2ft 5s 4s 7 11 mph 1020.3mb 71f 62f
4:50am 2.5ft 5s 4s 9 13 mph 1020mb 71f 62f
3:50am 2.5ft 5s 4s 11 16 mph 1020mb 71f 62f
2:50am 2.5ft 5s 4s 9 13 mph 1020.3mb 71f 62f
1:50am 2.5ft 5s 4s 13 16 mph 1020.6mb 71f 62f
12:50am 3ft 6s 4s 9 13 mph 1021.2mb 71f 63f
Wed 02/15 11:50pm 3.5ft 6s 4s 9 13 mph 1021.7mb 71f 63f
10:50pm 3.5ft 6s 4s 9 13 mph 1021.8mb 71f 63f
9:50pm 3.5ft 6s 4s 13 18 mph 1020.6mb 71f 62f
8:50pm 4ft 5s 4s 16 20 mph 1019.8mb 71f 62f
7:50pm 4.5ft 6s 5s 18 22 mph 1019.2mb 71f 62f
6:50pm 4.5ft 6s 5s 18 25 mph 1018.5mb 71f 62f
5:50pm 4.5ft 6s 5s 16 20 mph 1018.2mb 71f 61f
4:50pm 5ft 6s 5s 18 22 mph 1017.9mb 71f 60f
3:50pm 5ft 6s 5s 20 25 mph 1018.1mb 71f 59f
2:50pm 5.5ft 6s 5s 20 27 mph 1018.2mb 71f 58f